sensor_id;sensor_type;location;lat;lon;timestamp;pressure;altitude;pressure_sealevel;temperature;humidity
69060;BME280;56135;37.534;-122.308;2023-02-20T00:00:23;101601.09;;;17.84;37.13
69060;BME280;56135;37.534;-122.308;2023-02-20T00:02:50;101590.75;;;17.74;36.43
69060;BME280;56135;37.534;-122.308;2023-02-20T00:05:17;101588.97;;;17.73;33.59
69060;BME280;56135;37.534;-122.308;2023-02-20T00:07:43;101577.28;;;17.77;33.46
69060;BME280;56135;37.534;-122.308;2023-02-20T00:10:10;101589.34;;;17.60;36.58
69060;BME280;56135;37.534;-122.308;2023-02-20T00:12:36;101588.72;;;17.50;37.75
69060;BME280;56135;37.534;-122.308;2023-02-20T00:15:02;101593.59;;;17.34;38.42
69060;BME280;56135;37.534;-122.308;2023-02-20T00:17:29;101595.00;;;17.16;37.38
69060;BME280;56135;37.534;-122.308;2023-02-20T00:19:55;101599.50;;;17.14;35.54
69060;BME280;56135;37.534;-122.308;2023-02-20T00:22:23;101599.88;;;17.00;36.99
69060;BME280;56135;37.534;-122.308;2023-02-20T00:24:49;101599.75;;;17.05;35.77
69060;BME280;56135;37.534;-122.308;2023-02-20T00:27:16;101594.88;;;16.85;37.98
69060;BME280;56135;37.534;-122.308;2023-02-20T00:29:45;101599.41;;;16.81;39.51
69060;BME280;56135;37.534;-122.308;2023-02-20T00:32:12;101598.88;;;16.68;41.28
69060;BME280;56135;37.534;-122.308;2023-02-20T00:34:38;101593.72;;;16.61;38.22
69060;BME280;56135;37.534;-122.308;2023-02-20T00:37:04;101593.81;;;16.56;38.33
69060;BME280;56135;37.534;-122.308;2023-02-20T00:39:31;101587.53;;;16.59;39.50
69060;BME280;56135;37.534;-122.308;2023-02-20T00:41:57;101590.19;;;16.59;40.35
69060;BME280;56135;37.534;-122.308;2023-02-20T00:44:24;101581.66;;;16.44;44.45
69060;BME280;56135;37.534;-122.308;2023-02-20T00:46:50;101590.09;;;16.26;42.29
69060;BME280;56135;37.534;-122.308;2023-02-20T00:49:18;101590.44;;;16.10;43.54
69060;BME280;56135;37.534;-122.308;2023-02-20T00:51:44;101593.25;;;16.04;42.21
69060;BME280;56135;37.534;-122.308;2023-02-20T00:54:10;101596.03;;;15.99;41.89
69060;BME280;56135;37.534;-122.308;2023-02-20T00:56:37;101590.03;;;15.88;41.65
69060;BME280;56135;37.534;-122.308;2023-02-20T00:59:03;101595.53;;;15.79;41.33
69060;BME280;56135;37.534;-122.308;2023-02-20T01:01:30;101589.53;;;15.69;41.22
69060;BME280;56135;37.534;-122.308;2023-02-20T01:03:56;101596.84;;;15.58;40.92
69060;BME280;56135;37.534;-122.308;2023-02-20T01:06:23;101592.63;;;15.46;41.53
69060;BME280;56135;37.534;-122.308;2023-02-20T01:08:49;101593.81;;;15.31;41.09
69060;BME280;56135;37.534;-122.308;2023-02-20T01:11:16;101604.59;;;15.23;41.38
69060;BME280;56135;37.534;-122.308;2023-02-20T01:13:42;101603.06;;;15.10;42.12
69060;BME280;56135;37.534;-122.308;2023-02-20T01:16:08;101605.06;;;14.97;42.41
69060;BME280;56135;37.534;-122.308;2023-02-20T01:18:35;101609.75;;;14.82;42.24
69060;BME280;56135;37.534;-122.308;2023-02-20T01:21:01;101612.53;;;14.75;42.53
69060;BME280;56135;37.534;-122.308;2023-02-20T01:23:27;101610.94;;;14.61;42.75
69060;BME280;56135;37.534;-122.308;2023-02-20T01:25:53;101603.88;;;14.59;43.78
69060;BME280;56135;37.534;-122.308;2023-02-20T01:28:20;101601.41;;;14.48;43.54
69060;BME280;56135;37.534;-122.308;2023-02-20T01:30:46;101604.16;;;14.40;44.87
69060;BME280;56135;37.534;-122.308;2023-02-20T01:33:12;101604.38;;;14.26;44.90
69060;BME280;56135;37.534;-122.308;2023-02-20T01:35:38;101608.03;;;14.19;46.36
69060;BME280;56135;37.534;-122.308;2023-02-20T01:38:05;101597.59;;;14.05;47.79
69060;BME280;56135;37.534;-122.308;2023-02-20T01:40:33;101605.72;;;13.94;46.87
69060;BME280;56135;37.534;-122.308;2023-02-20T01:43:00;101604.94;;;13.86;47.11
69060;BME280;56135;37.534;-122.308;2023-02-20T01:47:55;101610.44;;;13.69;48.77
69060;BME280;56135;37.534;-122.308;2023-02-20T01:50:28;101619.38;;;13.60;49.32
69060;BME280;56135;37.534;-122.308;2023-02-20T01:53:00;101614.22;;;13.48;50.76
69060;BME280;56135;37.534;-122.308;2023-02-20T01:55:52;101628.47;;;13.42;51.35
69060;BME280;56135;37.534;-122.308;2023-02-20T01:58:24;101617.03;;;13.31;51.72
69060;BME280;56135;37.534;-122.308;2023-02-20T02:00:51;101635.69;;;13.22;52.11
69060;BME280;56135;37.534;-122.308;2023-02-20T02:03:22;101632.22;;;13.13;55.36
69060;BME280;56135;37.534;-122.308;2023-02-20T02:05:56;101634.09;;;13.00;55.56
69060;BME280;56135;37.534;-122.308;2023-02-20T02:08:25;101642.09;;;12.94;55.88
69060;BME280;56135;37.534;-122.308;2023-02-20T02:11:06;101648.41;;;12.84;57.37
69060;BME280;56135;37.534;-122.308;2023-02-20T02:13:35;101662.63;;;12.74;59.74
69060;BME280;56135;37.534;-122.308;2023-02-20T02:37:17;101689.53;;;11.75;71.05
69060;BME280;56135;37.534;-122.308;2023-02-20T02:42:48;101701.94;;;11.56;75.72
69060;BME280;56135;37.534;-122.308;2023-02-20T02:47:58;101711.66;;;11.37;79.71
69060;BME280;56135;37.534;-122.308;2023-02-20T02:50:33;101717.81;;;11.29;80.49
69060;BME280;56135;37.534;-122.308;2023-02-20T02:53:03;101725.75;;;11.22;82.92
69060;BME280;56135;37.534;-122.308;2023-02-20T02:55:31;101717.81;;;11.12;84.93
69060;BME280;56135;37.534;-122.308;2023-02-20T02:58:00;101726.63;;;11.02;86.24
69060;BME280;56135;37.534;-122.308;2023-02-20T03:03:30;101727.50;;;10.81;92.34
69060;BME280;56135;37.534;-122.308;2023-02-20T03:06:10;101734.50;;;10.70;94.08
69060;BME280;56135;37.534;-122.308;2023-02-20T03:08:43;101728.28;;;10.58;95.93
69060;BME280;56135;37.534;-122.308;2023-02-20T03:11:16;101733.56;;;10.49;97.63
69060;BME280;56135;37.534;-122.308;2023-02-20T03:14:05;101736.16;;;10.40;100.00
69060;BME280;56135;37.534;-122.308;2023-02-20T03:19:47;101736.91;;;10.17;100.00
69060;BME280;56135;37.534;-122.308;2023-02-20T03:24:50;101750.06;;;10.01;100.00
69060;BME280;56135;37.534;-122.308;2023-02-20T03:27:40;101757.06;;;9.95;100.00
69060;BME280;56135;37.534;-122.308;2023-02-20T03:30:21;101754.38;;;9.85;100.00
69060;BME280;56135;37.534;-122.308;2023-02-20T03:32:53;101749.03;;;9.78;100.00
69060;BME280;56135;37.534;-122.308;2023-02-20T03:35:43;101755.13;;;9.71;100.00
69060;BME280;56135;37.534;-122.308;2023-02-20T03:38:29;101758.53;;;9.57;100.00
69060;BME280;56135;37.534;-122.308;2023-02-20T03:41:15;101757.59;;;9.49;100.00
69060;BME280;56135;37.534;-122.308;2023-02-20T03:44:03;101753.16;;;9.42;100.00
69060;BME280;56135;37.534;-122.308;2023-02-20T03:46:32;101755.75;;;9.35;100.00
69060;BME280;56135;37.534;-122.308;2023-02-20T03:49:06;101758.31;;;9.29;100.00
69060;BME280;56135;37.534;-122.308;2023-02-20T03:51:34;101752.94;;;9.17;100.00
69060;BME280;56135;37.534;-122.308;2023-02-20T03:54:19;101759.91;;;9.09;100.00
69060;BME280;56135;37.534;-122.308;2023-02-20T03:56:47;101754.56;;;9.01;100.00
69060;BME280;56135;37.534;-122.308;2023-02-20T03:59:22;101752.72;;;8.94;100.00
69060;BME280;56135;37.534;-122.308;2023-02-20T04:01:55;101750.88;;;8.85;100.00
69060;BME280;56135;37.534;-122.308;2023-02-20T04:04:35;101760.47;;;8.77;100.00
69060;BME280;56135;37.534;-122.308;2023-02-20T04:07:07;101760.38;;;8.69;100.00
69060;BME280;56135;37.534;-122.308;2023-02-20T04:09:38;101768.19;;;8.61;100.00
69060;BME280;56135;37.534;-122.308;2023-02-20T04:12:27;101761.03;;;8.52;100.00
69060;BME280;56135;37.534;-122.308;2023-02-20T04:14:56;101757.47;;;8.47;100.00
69060;BME280;56135;37.534;-122.308;2023-02-20T04:17:36;101745.91;;;8.38;100.00
69060;BME280;56135;37.534;-122.308;2023-02-20T04:20:04;101749.34;;;8.30;100.00
69060;BME280;56135;37.534;-122.308;2023-02-20T04:22:34;101748.34;;;8.22;100.00
69060;BME280;56135;37.534;-122.308;2023-02-20T04:25:45;101746.50;;;8.15;100.00
69060;BME280;56135;37.534;-122.308;2023-02-20T04:28:13;101741.13;;;8.06;100.00
69060;BME280;56135;37.534;-122.308;2023-02-20T04:30:40;101743.69;;;8.01;100.00
69060;BME280;56135;37.534;-122.308;2023-02-20T04:33:09;101743.63;;;7.96;100.00
69060;BME280;56135;37.534;-122.308;2023-02-20T04:35:36;101739.16;;;7.89;100.00
69060;BME280;56135;37.534;-122.308;2023-02-20T04:38:03;101740.03;;;7.91;100.00
69060;BME280;56135;37.534;-122.308;2023-02-20T04:40:29;101736.47;;;7.88;100.00
69060;BME280;56135;37.534;-122.308;2023-02-20T04:42:55;101747.06;;;7.91;100.00
69060;BME280;56135;37.534;-122.308;2023-02-20T04:45:21;101743.53;;;7.90;100.00
69060;BME280;56135;37.534;-122.308;2023-02-20T04:47:48;101737.41;;;7.90;100.00
69060;BME280;56135;37.534;-122.308;2023-02-20T04:50:20;101740.03;;;7.90;100.00
69060;BME280;56135;37.534;-122.308;2023-02-20T04:52:47;101738.28;;;7.90;100.00
69060;BME280;56135;37.534;-122.308;2023-02-20T04:55:13;101737.31;;;7.85;100.00
69060;BME280;56135;37.534;-122.308;2023-02-20T04:57:39;101743.44;;;7.82;100.00
69060;BME280;56135;37.534;-122.308;2023-02-20T05:00:06;101751.28;;;7.79;100.00
69060;BME280;56135;37.534;-122.308;2023-02-20T05:02:38;101748.63;;;7.79;100.00
69060;BME280;56135;37.534;-122.308;2023-02-20T05:05:06;101738.97;;;7.77;100.00
69060;BME280;56135;37.534;-122.308;2023-02-20T05:07:39;101742.41;;;7.73;100.00
69060;BME280;56135;37.534;-122.308;2023-02-20T05:10:06;101742.31;;;7.66;100.00
69060;BME280;56135;37.534;-122.308;2023-02-20T05:12:32;101734.34;;;7.62;100.00
69060;BME280;56135;37.534;-122.308;2023-02-20T05:14:58;101739.59;;;7.59;100.00
69060;BME280;56135;37.534;-122.308;2023-02-20T05:17:24;101737.78;;;7.55;100.00
69060;BME280;56135;37.534;-122.308;2023-02-20T05:19:53;101747.34;;;7.51;100.00
69060;BME280;56135;37.534;-122.308;2023-02-20T05:22:19;101745.47;;;7.44;100.00
69060;BME280;56135;37.534;-122.308;2023-02-20T05:24:48;101748.00;;;7.38;100.00
69060;BME280;56135;37.534;-122.308;2023-02-20T05:27:16;101767.25;;;7.35;100.00
69060;BME280;56135;37.534;-122.308;2023-02-20T05:29:47;101760.09;;;7.28;100.00
69060;BME280;56135;37.534;-122.308;2023-02-20T05:32:14;101768.91;;;7.30;100.00
69060;BME280;56135;37.534;-122.308;2023-02-20T05:34:42;101774.91;;;7.23;100.00
69060;BME280;56135;37.534;-122.308;2023-02-20T05:37:10;101780.09;;;7.18;100.00
69060;BME280;56135;37.534;-122.308;2023-02-20T05:39:37;101788.75;;;7.12;100.00
69060;BME280;56135;37.534;-122.308;2023-02-20T05:42:04;101785.13;;;7.06;100.00
69060;BME280;56135;37.534;-122.308;2023-02-20T05:44:31;101789.44;;;7.02;100.00
69060;BME280;56135;37.534;-122.308;2023-02-20T05:46:57;101790.22;;;6.96;100.00
69060;BME280;56135;37.534;-122.308;2023-02-20T05:49:24;101797.03;;;6.88;100.00
69060;BME280;56135;37.534;-122.308;2023-02-20T05:51:50;101805.72;;;6.84;100.00
69060;BME280;56135;37.534;-122.308;2023-02-20T05:54:18;101816.03;;;6.75;100.00
69060;BME280;56135;37.534;-122.308;2023-02-20T05:56:46;101821.19;;;6.68;100.00
69060;BME280;56135;37.534;-122.308;2023-02-20T05:59:15;101836.81;;;6.62;100.00
69060;BME280;56135;37.534;-122.308;2023-02-20T06:01:42;101846.28;;;6.56;100.00
69060;BME280;56135;37.534;-122.308;2023-02-20T06:04:08;101854.94;;;6.50;100.00
69060;BME280;56135;37.534;-122.308;2023-02-20T06:06:39;101871.47;;;6.46;100.00
69060;BME280;56135;37.534;-122.308;2023-02-20T06:09:09;101867.78;;;6.39;100.00
69060;BME280;56135;37.534;-122.308;2023-02-20T06:11:40;101874.72;;;6.34;100.00
69060;BME280;56135;37.534;-122.308;2023-02-20T06:14:07;101879.78;;;6.26;100.00
69060;BME280;56135;37.534;-122.308;2023-02-20T06:16:33;101879.63;;;6.20;100.00
69060;BME280;56135;37.534;-122.308;2023-02-20T06:19:00;101883.03;;;6.16;100.00
69060;BME280;56135;37.534;-122.308;2023-02-20T06:21:26;101888.13;;;6.10;100.00
69060;BME280;56135;37.534;-122.308;2023-02-20T06:23:53;101890.63;;;6.04;100.00
69060;BME280;56135;37.534;-122.308;2023-02-20T06:26:20;101886.16;;;5.99;100.00
69060;BME280;56135;37.534;-122.308;2023-02-20T06:28:47;101890.34;;;5.94;100.00
69060;BME280;56135;37.534;-122.308;2023-02-20T06:31:21;101890.19;;;5.88;100.00
69060;BME280;56135;37.534;-122.308;2023-02-20T06:33:48;101887.50;;;5.85;100.00
69060;BME280;56135;37.534;-122.308;2023-02-20T06:36:35;101880.41;;;5.81;100.00
69060;BME280;56135;37.534;-122.308;2023-02-20T06:39:03;101881.22;;;5.78;100.00
69060;BME280;56135;37.534;-122.308;2023-02-20T06:41:29;101888.22;;;5.79;100.00
69060;BME280;56135;37.534;-122.308;2023-02-20T06:43:56;101894.25;;;5.77;100.00
69060;BME280;56135;37.534;-122.308;2023-02-20T06:46:23;101895.97;;;5.75;100.00
69060;BME280;56135;37.534;-122.308;2023-02-20T06:48:54;101895.00;;;5.71;100.00
69060;BME280;56135;37.534;-122.308;2023-02-20T06:51:23;101889.72;;;5.70;100.00
69060;BME280;56135;37.534;-122.308;2023-02-20T06:53:49;101885.25;;;5.65;100.00
69060;BME280;56135;37.534;-122.308;2023-02-20T06:56:19;101876.53;;;5.66;100.00
69060;BME280;56135;37.534;-122.308;2023-02-20T06:58:46;101865.16;;;5.66;100.00
69060;BME280;56135;37.534;-122.308;2023-02-20T07:01:14;101852.94;;;5.66;100.00
69060;BME280;56135;37.534;-122.308;2023-02-20T07:03:40;101841.59;;;5.67;100.00
69060;BME280;56135;37.534;-122.308;2023-02-20T07:06:06;101838.13;;;5.68;100.00
69060;BME280;56135;37.534;-122.308;2023-02-20T07:08:32;101838.97;;;5.67;100.00
69060;BME280;56135;37.534;-122.308;2023-02-20T07:10:59;101837.28;;;5.70;100.00
69060;BME280;56135;37.534;-122.308;2023-02-20T07:13:25;101843.41;;;5.70;100.00
69060;BME280;56135;37.534;-122.308;2023-02-20T07:15:51;101848.72;;;5.72;100.00
69060;BME280;56135;37.534;-122.308;2023-02-20T07:18:17;101843.47;;;5.72;100.00
69060;BME280;56135;37.534;-122.308;2023-02-20T07:20:46;101846.13;;;5.73;100.00
69060;BME280;56135;37.534;-122.308;2023-02-20T07:23:12;101843.38;;;5.68;100.00
69060;BME280;56135;37.534;-122.308;2023-02-20T07:25:38;101849.47;;;5.67;100.00
69060;BME280;56135;37.534;-122.308;2023-02-20T07:28:04;101856.44;;;5.67;100.00
69060;BME280;56135;37.534;-122.308;2023-02-20T07:30:33;101853.78;;;5.65;100.00
69060;BME280;56135;37.534;-122.308;2023-02-20T07:32:59;101853.72;;;5.62;100.00
69060;BME280;56135;37.534;-122.308;2023-02-20T07:35:25;101856.22;;;5.58;100.00
69060;BME280;56135;37.534;-122.308;2023-02-20T07:37:52;101853.56;;;5.56;100.00
69060;BME280;56135;37.534;-122.308;2023-02-20T07:40:18;101852.59;;;5.53;100.00
69060;BME280;56135;37.534;-122.308;2023-02-20T07:42:44;101844.69;;;5.51;100.00
69060;BME280;56135;37.534;-122.308;2023-02-20T07:45:10;101842.03;;;5.49;100.00
69060;BME280;56135;37.534;-122.308;2023-02-20T07:47:37;101842.69;;;5.42;100.00
69060;BME280;56135;37.534;-122.308;2023-02-20T07:50:03;101845.22;;;5.38;100.00
69060;BME280;56135;37.534;-122.308;2023-02-20T07:52:29;101837.34;;;5.38;100.00
69060;BME280;56135;37.534;-122.308;2023-02-20T07:54:56;101840.78;;;5.35;100.00
69060;BME280;56135;37.534;-122.308;2023-02-20T07:57:22;101854.59;;;5.28;100.00
69060;BME280;56135;37.534;-122.308;2023-02-20T07:59:48;101864.16;;;5.27;100.00
69060;BME280;56135;37.534;-122.308;2023-02-20T08:02:14;101871.13;;;5.27;100.00
69060;BME280;56135;37.534;-122.308;2023-02-20T08:04:40;101869.28;;;5.23;100.00
69060;BME280;56135;37.534;-122.308;2023-02-20T08:07:07;101856.97;;;5.18;100.00
69060;BME280;56135;37.534;-122.308;2023-02-20T08:09:33;101849.72;;;5.10;100.00
69060;BME280;56135;37.534;-122.308;2023-02-20T08:11:59;101857.50;;;5.07;100.00
69060;BME280;56135;37.534;-122.308;2023-02-20T08:14:25;101858.34;;;5.06;100.00
69060;BME280;56135;37.534;-122.308;2023-02-20T08:16:53;101855.63;;;5.03;100.00
69060;BME280;56135;37.534;-122.308;2023-02-20T08:19:19;101853.75;;;4.98;100.00
69060;BME280;56135;37.534;-122.308;2023-02-20T08:21:45;101846.63;;;4.93;100.00
69060;BME280;56135;37.534;-122.308;2023-02-20T08:24:11;101854.41;;;4.90;100.00
69060;BME280;56135;37.534;-122.308;2023-02-20T08:26:45;101838.59;;;4.87;100.00
69060;BME280;56135;37.534;-122.308;2023-02-20T08:29:12;101831.59;;;4.86;100.00
69060;BME280;56135;37.534;-122.308;2023-02-20T08:31:39;101825.41;;;4.83;100.00
69060;BME280;56135;37.534;-122.308;2023-02-20T08:34:05;101831.47;;;4.81;100.00
69060;BME280;56135;37.534;-122.308;2023-02-20T08:36:31;101833.19;;;4.80;100.00
69060;BME280;56135;37.534;-122.308;2023-02-20T08:38:57;101851.50;;;4.79;100.00
69060;BME280;56135;37.534;-122.308;2023-02-20T08:41:26;101847.88;;;4.75;100.00
69060;BME280;56135;37.534;-122.308;2023-02-20T08:43:53;101850.47;;;4.74;100.00
69060;BME280;56135;37.534;-122.308;2023-02-20T08:46:19;101859.16;;;4.73;100.00
69060;BME280;56135;37.534;-122.308;2023-02-20T08:48:45;101866.94;;;4.70;100.00
69060;BME280;56135;37.534;-122.308;2023-02-20T08:51:12;101883.34;;;4.65;100.00
69060;BME280;56135;37.534;-122.308;2023-02-20T08:53:39;101883.31;;;4.64;100.00
69060;BME280;56135;37.534;-122.308;2023-02-20T08:56:06;101882.41;;;4.62;100.00
69060;BME280;56135;37.534;-122.308;2023-02-20T08:58:32;101883.22;;;4.61;100.00
69060;BME280;56135;37.534;-122.308;2023-02-20T09:00:58;101890.13;;;4.59;100.00
69060;BME280;56135;37.534;-122.308;2023-02-20T09:03:25;101890.94;;;4.56;100.00
69060;BME280;56135;37.534;-122.308;2023-02-20T09:05:52;101892.59;;;4.53;100.00
69060;BME280;56135;37.534;-122.308;2023-02-20T09:08:18;101903.84;;;4.50;100.00
69060;BME280;56135;37.534;-122.308;2023-02-20T09:10:44;101918.59;;;4.48;100.00
69060;BME280;56135;37.534;-122.308;2023-02-20T09:13:10;101928.97;;;4.45;100.00
69060;BME280;56135;37.534;-122.308;2023-02-20T09:15:37;101928.03;;;4.43;100.00
69060;BME280;56135;37.534;-122.308;2023-02-20T09:18:10;101918.31;;;4.39;100.00
69060;BME280;56135;37.534;-122.308;2023-02-20T09:20:36;101912.16;;;4.37;100.00
69060;BME280;56135;37.534;-122.308;2023-02-20T09:23:03;101912.91;;;4.32;100.00
69060;BME280;56135;37.534;-122.308;2023-02-20T09:25:29;101912.91;;;4.32;100.00
69060;BME280;56135;37.534;-122.308;2023-02-20T09:27:56;101911.09;;;4.30;100.00
69060;BME280;56135;37.534;-122.308;2023-02-20T09:30:22;101911.91;;;4.29;100.00
69060;BME280;56135;37.534;-122.308;2023-02-20T09:32:49;101906.63;;;4.27;100.00
69060;BME280;56135;37.534;-122.308;2023-02-20T09:35:27;101910.97;;;4.27;100.00
69060;BME280;56135;37.534;-122.308;2023-02-20T09:37:54;101918.81;;;4.27;100.00
69060;BME280;56135;37.534;-122.308;2023-02-20T09:40:22;101916.94;;;4.23;100.00
69060;BME280;56135;37.534;-122.308;2023-02-20T09:45:50;101914.19;;;4.18;100.00
69060;BME280;56135;37.534;-122.308;2023-02-20T09:49:33;101909.84;;;4.18;100.00
69060;BME280;56135;37.534;-122.308;2023-02-20T09:51:34;101905.41;;;4.16;100.00
69060;BME280;56135;37.534;-122.308;2023-02-20T09:54:11;101912.31;;;4.14;100.00
69060;BME280;56135;37.534;-122.308;2023-02-20T09:56:41;101919.31;;;4.15;100.00
69060;BME280;56135;37.534;-122.308;2023-02-20T09:59:23;101921.81;;;4.12;100.00
69060;BME280;56135;37.534;-122.308;2023-02-20T10:01:59;101935.69;;;4.09;100.00
69060;BME280;56135;37.534;-122.308;2023-02-20T10:04:39;101936.38;;;4.04;100.00
69060;BME280;56135;37.534;-122.308;2023-02-20T10:07:22;101941.63;;;4.04;100.00
69060;BME280;56135;37.534;-122.308;2023-02-20T10:09:49;101941.63;;;4.04;100.00
69060;BME280;56135;37.534;-122.308;2023-02-20T10:15:20;101945.78;;;3.98;100.00
69060;BME280;56135;37.534;-122.308;2023-02-20T10:23:37;101931.72;;;3.95;100.00
69060;BME280;56135;37.534;-122.308;2023-02-20T10:26:11;101939.56;;;3.95;100.00
69060;BME280;56135;37.534;-122.308;2023-02-20T10:28:39;101941.31;;;3.94;100.00
69060;BME280;56135;37.534;-122.308;2023-02-20T10:34:00;101931.69;;;3.93;100.00
69060;BME280;56135;37.534;-122.308;2023-02-20T10:36:34;101926.44;;;3.93;100.00
69060;BME280;56135;37.534;-122.308;2023-02-20T10:39:10;101920.38;;;3.94;100.00
69060;BME280;56135;37.534;-122.308;2023-02-20T10:41:47;101911.75;;;3.97;100.00
69060;BME280;56135;37.534;-122.308;2023-02-20T10:52:41;101901.34;;;3.98;100.00
69060;BME280;56135;37.534;-122.308;2023-02-20T10:55:27;101915.34;;;4.00;100.00
69060;BME280;56135;37.534;-122.308;2023-02-20T10:58:07;101915.28;;;3.99;100.00
69060;BME280;56135;37.534;-122.308;2023-02-20T11:00:44;101924.94;;;4.00;100.00
69060;BME280;56135;37.534;-122.308;2023-02-20T11:03:19;101928.41;;;4.00;100.00
69060;BME280;56135;37.534;-122.308;2023-02-20T11:05:49;101921.38;;;3.98;100.00
69060;BME280;56135;37.534;-122.308;2023-02-20T11:08:17;101923.94;;;3.96;100.00
69060;BME280;56135;37.534;-122.308;2023-02-20T11:10:47;101920.34;;;3.93;100.00
69060;BME280;56135;37.534;-122.308;2023-02-20T11:13:21;101931.59;;;3.90;100.00
69060;BME280;56135;37.534;-122.308;2023-02-20T11:15:52;101939.31;;;3.87;100.00
69060;BME280;56135;37.534;-122.308;2023-02-20T11:18:23;101934.06;;;3.87;100.00
69060;BME280;56135;37.534;-122.308;2023-02-20T11:20:52;101928.75;;;3.84;100.00
69060;BME280;56135;37.534;-122.308;2023-02-20T11:26:31;101936.47;;;3.79;100.00
69060;BME280;56135;37.534;-122.308;2023-02-20T11:29:18;101938.84;;;3.73;100.00
69060;BME280;56135;37.534;-122.308;2023-02-20T11:31:45;101941.47;;;3.73;100.00
69060;BME280;56135;37.534;-122.308;2023-02-20T11:34:21;101945.81;;;3.73;100.00
69060;BME280;56135;37.534;-122.308;2023-02-20T11:36:51;101942.34;;;3.74;100.00
69060;BME280;56135;37.534;-122.308;2023-02-20T11:39:27;101949.31;;;3.73;100.00
69060;BME280;56135;37.534;-122.308;2023-02-20T11:42:08;101943.13;;;3.71;100.00
69060;BME280;56135;37.534;-122.308;2023-02-20T11:44:36;101932.63;;;3.70;100.00
69060;BME280;56135;37.534;-122.308;2023-02-20T11:47:26;101934.34;;;3.69;100.00
69060;BME280;56135;37.534;-122.308;2023-02-20T11:52:35;101948.34;;;3.71;100.00
69060;BME280;56135;37.534;-122.308;2023-02-20T11:55:28;101950.91;;;3.70;100.00
69060;BME280;56135;37.534;-122.308;2023-02-20T11:57:54;101956.97;;;3.68;100.00
69060;BME280;56135;37.534;-122.308;2023-02-20T12:00:25;101958.72;;;3.68;100.00
69060;BME280;56135;37.534;-122.308;2023-02-20T12:05:42;101958.75;;;3.70;100.00
69060;BME280;56135;37.534;-122.308;2023-02-20T12:11:09;101961.38;;;3.70;100.00
69060;BME280;56135;37.534;-122.308;2023-02-20T12:13:42;101956.19;;;3.71;100.00
69060;BME280;56135;37.534;-122.308;2023-02-20T12:18:44;101949.25;;;3.72;100.00
69060;BME280;56135;37.534;-122.308;2023-02-20T12:26:59;101945.00;;;3.75;100.00
69060;BME280;56135;37.534;-122.308;2023-02-20T12:29:57;101962.41;;;3.75;100.00
69060;BME280;56135;37.534;-122.308;2023-02-20T12:32:39;101969.34;;;3.73;100.00
69060;BME280;56135;37.534;-122.308;2023-02-20T12:35:43;101966.59;;;3.70;100.00
69060;BME280;56135;37.534;-122.308;2023-02-20T12:38:27;101967.50;;;3.70;100.00
69060;BME280;56135;37.534;-122.308;2023-02-20T12:41:23;101952.59;;;3.67;100.00
69060;BME280;56135;37.534;-122.308;2023-02-20T12:44:06;101950.81;;;3.66;100.00
69060;BME280;56135;37.534;-122.308;2023-02-20T12:47:01;101950.91;;;3.70;100.00
69060;BME280;56135;37.534;-122.308;2023-02-20T12:55:44;101928.31;;;3.70;100.00
69060;BME280;56135;37.534;-122.308;2023-02-20T12:58:28;101922.13;;;3.68;100.00
69060;BME280;56135;37.534;-122.308;2023-02-20T13:01:04;101929.91;;;3.66;100.00
69060;BME280;56135;37.534;-122.308;2023-02-20T13:03:43;101936.78;;;3.64;100.00
69060;BME280;56135;37.534;-122.308;2023-02-20T13:06:14;101929.72;;;3.62;100.00
69060;BME280;56135;37.534;-122.308;2023-02-20T13:11:18;101946.16;;;3.58;100.00
69060;BME280;56135;37.534;-122.308;2023-02-20T13:16:47;101947.66;;;3.51;100.00
69060;BME280;56135;37.534;-122.308;2023-02-20T13:22:04;101937.94;;;3.47;100.00
69060;BME280;56135;37.534;-122.308;2023-02-20T13:24:38;101935.09;;;3.41;100.00
69060;BME280;56135;37.534;-122.308;2023-02-20T13:27:10;101942.00;;;3.39;100.00
69060;BME280;56135;37.534;-122.308;2023-02-20T13:29:58;101934.06;;;3.36;100.00
69060;BME280;56135;37.534;-122.308;2023-02-20T13:32:30;101928.72;;;3.32;100.00
69060;BME280;56135;37.534;-122.308;2023-02-20T13:38:18;101956.44;;;3.29;100.00
69060;BME280;56135;37.534;-122.308;2023-02-20T13:46:07;101956.28;;;3.24;100.00
69060;BME280;56135;37.534;-122.308;2023-02-20T13:48:50;101946.66;;;3.23;100.00
69060;BME280;56135;37.534;-122.308;2023-02-20T13:53:55;101942.00;;;3.14;100.00
69060;BME280;56135;37.534;-122.308;2023-02-20T13:56:26;101954.97;;;3.13;100.00
69060;BME280;56135;37.534;-122.308;2023-02-20T13:58:57;101944.44;;;3.10;100.00
69060;BME280;56135;37.534;-122.308;2023-02-20T14:01:24;101943.56;;;3.09;100.00
69060;BME280;56135;37.534;-122.308;2023-02-20T14:04:00;101933.88;;;3.07;100.00
69060;BME280;56135;37.534;-122.308;2023-02-20T14:06:26;101922.47;;;3.05;100.00
69060;BME280;56135;37.534;-122.308;2023-02-20T14:09:10;101917.16;;;3.02;100.00
69060;BME280;56135;37.534;-122.308;2023-02-20T14:11:38;101923.31;;;3.04;100.00
69060;BME280;56135;37.534;-122.308;2023-02-20T14:14:13;101923.38;;;3.05;100.00
69060;BME280;56135;37.534;-122.308;2023-02-20T14:16:47;101930.16;;;3.00;100.00
69060;BME280;56135;37.534;-122.308;2023-02-20T14:19:21;101941.38;;;2.97;100.00
69060;BME280;56135;37.534;-122.308;2023-02-20T14:21:48;101952.63;;;2.96;100.00
69060;BME280;56135;37.534;-122.308;2023-02-20T14:24:26;101952.59;;;2.95;100.00